createdAt,value
2019-06-07T00:00:01.959Z,13.25
2019-06-07T00:02:29.483Z,13.09
2019-06-07T00:04:57.712Z,13.18
2019-06-07T00:07:24.776Z,13.22
2019-06-07T00:09:52.556Z,13.16
2019-06-07T00:12:21.512Z,13.13
2019-06-07T00:14:49.471Z,13.09
2019-06-07T00:17:19.617Z,13.12
2019-06-07T00:19:46.575Z,12.92
2019-06-07T00:22:25.342Z,12.95
2019-06-07T00:24:44.301Z,13.00
2019-06-07T00:27:12.804Z,12.93
2019-06-07T00:29:40.635Z,13.04
2019-06-07T00:32:09.287Z,13.03
2019-06-07T00:34:37.351Z,12.88
2019-06-07T00:37:04.987Z,12.78
2019-06-07T00:39:33.052Z,12.80
2019-06-07T00:42:01.016Z,12.84
2019-06-07T00:44:28.655Z,12.78
2019-06-07T00:46:56.339Z,12.82
2019-06-07T00:49:40.113Z,12.80
2019-06-07T00:51:54.018Z,12.71
2019-06-07T00:54:24.577Z,12.55
2019-06-07T00:56:52.047Z,12.37
2019-06-07T00:59:24.273Z,12.28
2019-06-07T01:01:49.714Z,12.29
2019-06-07T01:04:19.399Z,12.18
2019-06-07T01:06:47.744Z,12.35
2019-06-07T01:09:15.387Z,12.39
2019-06-07T01:11:43.097Z,12.35
2019-06-07T01:14:10.889Z,12.34
2019-06-07T01:16:56.744Z,12.39
2019-06-07T01:19:07.563Z,12.41
2019-06-07T01:21:35.818Z,12.46
2019-06-07T01:24:11.896Z,12.47
2019-06-07T01:26:33.587Z,12.57
2019-06-07T01:29:01.238Z,12.51
2019-06-07T01:31:31.644Z,12.41
2019-06-07T01:33:57.681Z,12.43
2019-06-07T01:36:29.545Z,12.53
2019-06-07T01:38:55.556Z,12.51
2019-06-07T01:41:25.258Z,12.36
2019-06-07T01:43:52.293Z,12.24
2019-06-07T01:46:20.739Z,12.28
2019-06-07T01:48:49.888Z,12.31
2019-06-07T01:51:18.939Z,12.22
2019-06-07T01:53:46.816Z,12.32
2019-06-07T01:56:13.854Z,12.31
2019-06-07T01:58:41.631Z,12.22
2019-06-07T02:01:08.622Z,12.28
2019-06-07T02:03:36.253Z,12.35
2019-06-07T02:06:03.805Z,12.04
2019-06-07T02:08:34.286Z,12.12
2019-06-07T02:11:01.395Z,12.09
2019-06-07T02:13:30.720Z,12.18
2019-06-07T02:15:58.671Z,12.27
2019-06-07T02:18:31.302Z,12.12
2019-06-07T02:20:55.825Z,12.09
2019-06-07T02:23:27.534Z,12.10
2019-06-07T02:25:53.687Z,12.15
2019-06-07T02:28:30.091Z,11.95
2019-06-07T02:31:00.241Z,11.91
2019-06-07T02:33:25.830Z,11.86
2019-06-07T02:35:50.757Z,11.93
2019-06-07T02:38:18.854Z,11.89
2019-06-07T02:40:46.641Z,11.92
2019-06-07T02:43:14.040Z,12.00
2019-06-07T02:45:43.751Z,11.95
2019-06-07T02:48:11.267Z,11.95
2019-06-07T02:50:39.649Z,11.96
2019-06-07T02:53:07.472Z,11.98
2019-06-07T02:56:26.515Z,11.99
2019-06-07T02:58:04.115Z,11.98
2019-06-07T03:01:03.783Z,12.01
2019-06-07T03:03:15.663Z,11.97
2019-06-07T03:05:44.625Z,12.02
2019-06-07T03:08:12.888Z,11.83
2019-06-07T03:10:43.123Z,11.94
2019-06-07T03:13:14.001Z,11.98
2019-06-07T03:15:49.939Z,11.87
2019-06-07T03:18:36.419Z,11.86
2019-06-07T03:21:05.848Z,11.88
2019-06-07T03:23:36.088Z,11.80
2019-06-07T03:26:04.383Z,11.67
2019-06-07T03:28:37.083Z,11.66
2019-06-07T03:31:03.193Z,11.71
2019-06-07T03:33:33.318Z,11.59
2019-06-07T03:36:13.042Z,11.69
2019-06-07T03:38:31.994Z,11.68
2019-06-07T03:40:59.101Z,11.69
2019-06-07T03:43:27.424Z,11.74
2019-06-07T03:45:54.450Z,11.80
2019-06-07T03:48:22.239Z,11.89
2019-06-07T03:51:03.887Z,11.62
2019-06-07T03:53:18.988Z,12.01
2019-06-07T03:55:46.639Z,11.86
2019-06-07T03:58:31.968Z,11.33
2019-06-07T04:00:43.631Z,11.81
2019-06-07T04:03:31.174Z,11.84
2019-06-07T04:05:43.474Z,11.90
2019-06-07T04:08:10.005Z,11.86
2019-06-07T04:10:53.415Z,11.80
2019-06-07T04:13:06.794Z,11.94
2019-06-07T04:15:38.314Z,12.01
2019-06-07T04:18:04.226Z,11.98
2019-06-07T04:20:34.089Z,11.98
2019-06-07T04:23:01.637Z,11.80
2019-06-07T04:25:31.644Z,11.90
2019-06-07T04:27:58.617Z,12.11
2019-06-07T04:30:41.821Z,11.88
2019-06-07T04:33:09.566Z,12.24
2019-06-07T04:35:40.002Z,12.41
2019-06-07T04:38:08.119Z,12.48
2019-06-07T04:40:36.984Z,12.70
2019-06-07T04:43:05.816Z,12.72
2019-06-07T04:45:41.726Z,12.68
2019-06-07T04:48:04.345Z,12.59
2019-06-07T04:50:34.318Z,12.60
2019-06-07T04:53:02.245Z,12.60
2019-06-07T04:55:31.426Z,12.56
2019-06-07T04:57:59.482Z,12.70
2019-06-07T05:00:49.725Z,12.82
2019-06-07T05:03:01.238Z,12.99
2019-06-07T05:05:29.340Z,12.94
2019-06-07T05:07:57.350Z,12.99
2019-06-07T05:10:25.368Z,13.07
2019-06-07T05:12:52.668Z,13.23
2019-06-07T05:15:20.376Z,13.49
2019-06-07T05:17:47.913Z,13.55
2019-06-07T05:20:16.751Z,13.57
2019-06-07T05:22:45.460Z,13.76
2019-06-07T05:25:12.599Z,13.75
2019-06-07T05:27:45.964Z,13.84
2019-06-07T05:30:36.438Z,13.81
2019-06-07T05:32:45.207Z,13.83
2019-06-07T05:35:09.033Z,13.86
2019-06-07T05:37:38.026Z,14.03
2019-06-07T05:40:06.765Z,14.22
2019-06-07T05:42:40.214Z,14.33
2019-06-07T05:45:05.232Z,14.33
2019-06-07T05:47:37.508Z,14.34
2019-06-07T05:50:02.212Z,14.29
2019-06-07T05:52:30.233Z,14.48
2019-06-07T05:54:58.429Z,14.51
2019-06-07T05:57:26.055Z,14.70
2019-06-07T05:59:54.050Z,14.79
2019-06-07T06:02:24.550Z,14.98
2019-06-07T06:04:51.498Z,15.02
2019-06-07T06:07:18.928Z,15.21
2019-06-07T06:09:47.514Z,15.21
2019-06-07T06:12:33.547Z,15.23
2019-06-07T06:14:46.870Z,15.33
2019-06-07T06:17:14.557Z,15.36
2019-06-07T06:19:47.508Z,15.51
2019-06-07T06:22:11.103Z,15.69
2019-06-07T06:24:40.001Z,15.81
2019-06-07T06:27:40.746Z,15.83
2019-06-07T06:29:40.133Z,15.96
2019-06-07T06:32:41.226Z,15.84
2019-06-07T06:34:40.018Z,16.15
2019-06-07T06:37:07.069Z,16.24
2019-06-07T06:39:34.235Z,16.36
2019-06-07T06:42:03.968Z,16.41
2019-06-07T06:44:31.417Z,16.47
2019-06-07T06:46:59.081Z,16.39
2019-06-07T06:49:26.365Z,16.64
2019-06-07T06:51:54.520Z,16.76
2019-06-07T06:54:39.601Z,16.87
2019-06-07T06:56:52.777Z,17.06
2019-06-07T06:59:38.073Z,17.30
2019-06-07T07:01:52.330Z,17.29
2019-06-07T07:04:18.194Z,17.42
2019-06-07T07:06:47.990Z,17.46
2019-06-07T07:09:15.073Z,17.57
2019-06-07T07:11:55.278Z,17.51
2019-06-07T07:14:13.049Z,17.71
2019-06-07T07:16:42.240Z,17.72
2019-06-07T07:19:10.099Z,17.64
2019-06-07T07:21:37.541Z,17.68
2019-06-07T07:24:21.101Z,17.82
2019-06-07T07:26:34.612Z,17.81
2019-06-07T07:29:02.095Z,18.07
2019-06-07T07:31:29.544Z,18.22
2019-06-07T07:34:28.697Z,18.27
2019-06-07T07:36:38.982Z,18.30
2019-06-07T07:39:03.471Z,18.15
2019-06-07T07:41:25.599Z,18.08
2019-06-07T07:44:04.442Z,18.28
2019-06-07T07:46:30.125Z,18.17
2019-06-07T07:48:54.203Z,18.22
2019-06-07T07:51:20.907Z,18.41
2019-06-07T07:53:58.982Z,18.54
2019-06-07T07:56:17.694Z,18.56
2019-06-07T07:58:49.742Z,18.48
2019-06-07T08:01:14.614Z,18.41
2019-06-07T08:03:41.712Z,18.52
2019-06-07T08:06:09.385Z,18.56
2019-06-07T08:08:36.732Z,18.64
2019-06-07T08:11:03.759Z,18.33
2019-06-07T08:13:31.764Z,18.47
2019-06-07T08:16:06.216Z,18.49
2019-06-07T08:18:28.482Z,18.59
2019-06-07T08:21:20.326Z,18.64
2019-06-07T08:23:25.871Z,18.70
2019-06-07T08:25:59.547Z,18.53
2019-06-07T08:28:22.699Z,18.72
2019-06-07T08:30:55.179Z,18.90
2019-06-07T08:33:27.018Z,18.99
2019-06-07T08:36:16.944Z,19.18
2019-06-07T08:38:27.447Z,19.03
2019-06-07T08:40:54.631Z,19.16
2019-06-07T08:43:21.043Z,19.35
2019-06-07T08:45:47.162Z,19.23
2019-06-07T08:48:27.389Z,19.31
2019-06-07T08:50:43.895Z,19.25
2019-06-07T08:53:12.497Z,19.06
2019-06-07T08:55:40.032Z,19.32
2019-06-07T08:58:08.738Z,19.45
2019-06-07T09:00:47.246Z,19.21
2019-06-07T09:03:07.494Z,19.25
2019-06-07T09:05:35.305Z,19.34
2019-06-07T09:08:23.647Z,19.11
2019-06-07T09:10:32.755Z,19.21
2019-06-07T09:13:07.500Z,19.25
2019-06-07T09:15:29.936Z,19.03
2019-06-07T09:18:35.021Z,19.25
2019-06-07T09:20:48.555Z,19.47
2019-06-07T09:23:17.643Z,19.67
2019-06-07T09:26:00.875Z,19.77
2019-06-07T09:28:19.741Z,19.97
2019-06-07T09:30:45.197Z,19.79
2019-06-07T09:33:12.671Z,19.55
2019-06-07T09:35:40.699Z,20.29
2019-06-07T09:38:23.388Z,20.48
2019-06-07T09:40:37.212Z,20.31
2019-06-07T09:43:55.400Z,20.44
2019-06-07T09:45:35.206Z,20.23
2019-06-07T09:48:05.685Z,20.29
2019-06-07T09:50:31.927Z,20.28
2019-06-07T09:53:10.108Z,20.34
2019-06-07T09:55:28.425Z,20.30
2019-06-07T09:57:56.498Z,20.03
2019-06-07T10:00:42.283Z,20.25
2019-06-07T10:02:54.477Z,20.72
2019-06-07T10:05:21.916Z,20.78
2019-06-07T10:08:02.395Z,20.51
2019-06-07T10:12:48.635Z,20.77
2019-06-07T10:15:15.762Z,21.11
2019-06-07T10:17:43.478Z,20.97
2019-06-07T10:20:11.708Z,21.38
2019-06-07T10:22:39.152Z,20.91
2019-06-07T10:25:08.515Z,20.82
2019-06-07T10:27:36.495Z,20.88
2019-06-07T10:30:06.294Z,21.65
2019-06-07T10:32:33.661Z,21.74
2019-06-07T10:35:03.074Z,21.51
2019-06-07T10:37:31.216Z,21.67
2019-06-07T10:39:58.643Z,21.51
2019-06-07T10:42:26.000Z,20.98
2019-06-07T10:44:53.639Z,21.04
2019-06-07T10:47:21.033Z,21.48
2019-06-07T10:49:48.102Z,21.78
2019-06-07T10:54:42.583Z,21.63
2019-06-07T10:57:13.816Z,21.57
2019-06-07T10:59:38.662Z,21.49
2019-06-07T11:02:07.820Z,21.69
2019-06-07T11:04:35.003Z,22.08
2019-06-07T11:07:04.363Z,22.01
2019-06-07T11:09:33.334Z,22.34
2019-06-07T11:12:01.544Z,22.71
2019-06-07T11:14:29.673Z,22.65
2019-06-07T11:16:56.651Z,22.28
2019-06-07T11:19:24.019Z,23.09
2019-06-07T11:21:52.292Z,22.74
2019-06-07T11:24:24.437Z,22.63
2019-06-07T11:26:49.158Z,22.13
2019-06-07T11:29:16.155Z,22.71
2019-06-07T11:31:47.284Z,22.73
2019-06-07T11:34:14.599Z,22.45
2019-06-07T11:36:42.090Z,22.58
2019-06-07T11:39:11.076Z,22.38
2019-06-07T11:41:38.707Z,22.81
2019-06-07T11:44:06.704Z,22.80
2019-06-07T11:46:34.366Z,22.57
2019-06-07T11:49:02.049Z,22.35
2019-06-07T11:51:29.552Z,23.18
2019-06-07T11:53:57.352Z,22.74
2019-06-07T11:56:24.756Z,22.51
2019-06-07T11:58:54.903Z,22.75
2019-06-07T12:01:21.945Z,22.95
2019-06-07T12:03:49.311Z,22.40
2019-06-07T12:06:18.124Z,22.79
2019-06-07T12:08:45.219Z,23.17
2019-06-07T12:11:14.279Z,23.15
2019-06-07T12:13:41.923Z,23.39
2019-06-07T12:16:11.178Z,24.22
2019-06-07T12:18:38.927Z,23.81
2019-06-07T12:21:05.967Z,24.09
2019-06-07T12:23:34.425Z,24.23
2019-06-07T12:26:03.278Z,23.32
2019-06-07T12:28:30.648Z,23.89
2019-06-07T12:30:57.955Z,23.57
2019-06-07T12:33:25.616Z,23.56
2019-06-07T12:35:52.631Z,23.74
2019-06-07T12:38:21.070Z,24.70
2019-06-07T12:40:57.499Z,24.93
2019-06-07T12:43:19.217Z,24.71
2019-06-07T12:45:46.964Z,24.36
2019-06-07T12:48:17.602Z,24.88
2019-06-07T12:50:44.062Z,24.40
2019-06-07T12:53:11.671Z,24.62
2019-06-07T12:55:42.793Z,24.75
2019-06-07T12:58:10.519Z,25.31
2019-06-07T13:00:37.548Z,25.50
2019-06-07T13:03:04.640Z,25.68
2019-06-07T13:05:32.388Z,26.27
2019-06-07T13:08:00.501Z,26.49
2019-06-07T13:10:28.577Z,25.95
2019-06-07T13:12:56.427Z,25.84
2019-06-07T13:15:25.975Z,25.50
2019-06-07T13:17:54.004Z,24.85
2019-06-07T13:20:22.691Z,24.71
2019-06-07T13:22:50.598Z,24.84
2019-06-07T13:25:21.260Z,24.98
2019-06-07T13:27:49.105Z,25.74
2019-06-07T13:30:18.814Z,25.60
2019-06-07T13:32:46.490Z,25.89
2019-06-07T13:35:14.406Z,25.91
2019-06-07T13:37:42.725Z,26.00
2019-06-07T13:40:10.158Z,25.78
2019-06-07T13:42:37.172Z,25.73
2019-06-07T13:45:06.797Z,25.90
2019-06-07T13:47:34.240Z,25.84
2019-06-07T13:50:02.066Z,26.25
2019-06-07T13:52:29.814Z,25.80
2019-06-07T13:54:57.510Z,25.77
2019-06-07T13:57:26.061Z,25.89
2019-06-07T13:59:53.592Z,26.28
2019-06-07T14:02:21.251Z,25.96
2019-06-07T14:04:49.844Z,26.05
2019-06-07T14:07:18.861Z,25.63
2019-06-07T14:09:46.829Z,25.35
2019-06-07T14:12:16.486Z,25.72
2019-06-07T14:14:44.598Z,26.32
2019-06-07T14:17:12.396Z,26.36
2019-06-07T14:19:39.435Z,26.06
2019-06-07T14:22:06.814Z,26.63
2019-06-07T14:24:34.838Z,26.46
2019-06-07T14:27:05.183Z,26.19
2019-06-07T14:29:32.337Z,25.64
2019-06-07T14:31:59.708Z,25.68
2019-06-07T14:34:28.701Z,25.84
2019-06-07T14:36:57.201Z,25.66
2019-06-07T14:39:24.985Z,26.35
2019-06-07T14:42:08.032Z,25.95
2019-06-07T14:44:21.407Z,26.02
2019-06-07T14:46:48.506Z,26.27
2019-06-07T14:49:15.870Z,26.09
2019-06-07T14:51:43.556Z,26.70
2019-06-07T14:54:10.625Z,26.85
2019-06-07T14:56:37.645Z,26.40
2019-06-07T14:59:05.030Z,25.87
2019-06-07T15:01:33.534Z,26.26
2019-06-07T15:04:01.372Z,27.09
2019-06-07T15:06:28.650Z,26.82
2019-06-07T15:08:56.159Z,26.94
2019-06-07T15:11:23.516Z,26.80
2019-06-07T15:13:51.232Z,26.95
2019-06-07T15:16:18.585Z,26.46
2019-06-07T15:18:45.598Z,26.71
2019-06-07T15:21:13.570Z,27.39
2019-06-07T15:23:41.014Z,27.24
2019-06-07T15:26:08.387Z,26.69
2019-06-07T15:28:37.053Z,26.22
2019-06-07T15:31:05.396Z,26.04
2019-06-07T15:33:34.332Z,26.60
2019-06-07T15:36:03.859Z,26.57
2019-06-07T15:38:32.885Z,26.62
2019-06-07T15:41:01.779Z,26.71
2019-06-07T15:43:31.111Z,26.92
2019-06-07T15:45:58.674Z,26.88
2019-06-07T15:48:25.670Z,27.05
2019-06-07T15:50:53.073Z,26.17
2019-06-07T15:53:21.284Z,26.13
2019-06-07T15:55:48.971Z,26.63
2019-06-07T15:58:16.012Z,26.45
2019-06-07T16:00:43.010Z,26.92
2019-06-07T16:03:10.480Z,26.97
2019-06-07T16:05:38.269Z,26.59
2019-06-07T16:08:05.776Z,26.62
2019-06-07T16:10:34.585Z,26.08
2019-06-07T16:13:01.856Z,25.81
2019-06-07T16:15:29.331Z,25.74
2019-06-07T16:17:57.135Z,25.47
2019-06-07T16:20:24.440Z,25.25
2019-06-07T16:22:52.079Z,25.09
2019-06-07T16:25:19.715Z,25.24
2019-06-07T16:27:46.751Z,25.10
2019-06-07T16:30:14.545Z,24.90
2019-06-07T16:32:42.329Z,24.98
2019-06-07T16:35:12.741Z,24.77
2019-06-07T16:37:40.964Z,24.74
2019-06-07T16:40:09.556Z,24.77
2019-06-07T16:42:36.611Z,24.56
2019-06-07T16:45:04.446Z,24.76
2019-06-07T16:47:32.083Z,24.88
2019-06-07T16:49:59.505Z,24.77
2019-06-07T16:52:26.880Z,24.72
2019-06-07T16:54:54.360Z,24.65
2019-06-07T16:57:22.477Z,24.68
2019-06-07T16:59:50.897Z,24.44
2019-06-07T17:02:17.990Z,24.59
2019-06-07T17:04:45.671Z,24.45
2019-06-07T17:07:13.152Z,24.46
2019-06-07T17:09:42.251Z,24.46
2019-06-07T17:12:10.172Z,24.37
2019-06-07T17:14:40.376Z,24.49
2019-06-07T17:17:07.856Z,24.41
2019-06-07T17:19:35.270Z,24.34
2019-06-07T17:22:06.951Z,24.16
2019-06-07T17:24:33.988Z,24.20
2019-06-07T17:27:01.520Z,24.22
2019-06-07T17:29:29.310Z,24.24
2019-06-07T17:31:56.757Z,24.27
2019-06-07T17:34:24.152Z,24.18
2019-06-07T17:36:52.364Z,24.21
2019-06-07T17:39:19.825Z,24.21
2019-06-07T17:41:58.640Z,24.14
2019-06-07T17:44:16.866Z,24.13
2019-06-07T17:46:43.839Z,24.09
2019-06-07T17:49:11.267Z,23.80
2019-06-07T17:51:39.048Z,23.66
2019-06-07T17:54:06.489Z,23.56
2019-06-07T17:56:33.951Z,23.33
2019-06-07T17:59:02.254Z,23.09
2019-06-07T18:01:40.968Z,21.77
2019-06-07T18:03:58.907Z,20.88
2019-06-07T18:06:27.871Z,19.73
2019-06-07T18:08:57.128Z,19.78
2019-06-07T18:11:24.869Z,19.53
2019-06-07T18:14:09.845Z,19.26
2019-06-07T18:16:21.252Z,19.08
2019-06-07T18:18:48.796Z,18.96
2019-06-07T18:21:16.256Z,18.86
2019-06-07T18:23:44.096Z,18.79
2019-06-07T18:26:11.461Z,18.95
2019-06-07T18:28:39.165Z,19.11
2019-06-07T18:31:06.691Z,19.04
2019-06-07T18:33:34.120Z,18.93
2019-06-07T18:36:02.080Z,18.79
2019-06-07T18:38:29.111Z,18.42
2019-06-07T18:40:57.438Z,18.11
2019-06-07T18:43:24.777Z,18.09
2019-06-07T19:00:15.567Z,17.55
2019-06-07T19:02:42.973Z,17.51
2019-06-07T19:05:10.713Z,17.59
2019-06-07T19:07:37.871Z,17.22
2019-06-07T19:15:28.899Z,17.21
2019-06-07T19:17:56.211Z,17.39
2019-06-07T19:20:24.836Z,17.51
2019-06-07T19:22:52.314Z,17.55
2019-06-07T19:25:20.084Z,17.53
2019-06-07T19:27:47.130Z,17.56
2019-06-07T19:30:14.240Z,17.51
2019-06-07T19:32:41.703Z,17.55
2019-06-07T19:35:08.938Z,17.46
2019-06-07T19:37:36.355Z,17.20
2019-06-07T19:40:04.710Z,17.21
2019-06-07T19:42:32.075Z,17.11
2019-06-07T19:45:24.528Z,17.20
2019-06-07T19:47:28.824Z,17.25
2019-06-07T19:49:56.717Z,17.22
2019-06-07T19:52:24.468Z,17.18
2019-06-07T19:54:51.590Z,17.08
2019-06-07T19:57:18.893Z,17.26
2019-06-07T19:59:45.941Z,16.90
2019-06-07T20:02:13.736Z,16.98
2019-06-07T20:04:41.104Z,17.07
2019-06-07T20:07:08.187Z,17.07
2019-06-07T20:09:36.071Z,17.03
2019-06-07T20:12:04.753Z,16.80
2019-06-07T20:14:32.639Z,16.83
2019-06-07T20:17:01.385Z,16.64
2019-06-07T20:19:28.971Z,16.69
2019-06-07T20:21:56.938Z,16.67
2019-06-07T20:24:27.473Z,16.71
2019-06-07T20:26:56.152Z,16.44
2019-06-07T20:29:26.294Z,16.46
2019-06-07T20:31:53.011Z,16.31
2019-06-07T20:34:20.979Z,16.41
2019-06-07T20:36:48.550Z,16.44
2019-06-07T20:39:15.551Z,16.42
2019-06-07T20:41:43.183Z,16.47
2019-06-07T20:44:11.284Z,16.61
2019-06-07T20:46:38.893Z,16.64
2019-06-07T20:49:08.425Z,16.46
2019-06-07T20:51:37.410Z,16.48
2019-06-07T20:54:05.601Z,16.44
2019-06-07T20:56:33.762Z,16.42
2019-06-07T20:59:02.791Z,16.50
2019-06-07T21:01:29.907Z,16.33
2019-06-07T21:03:58.981Z,16.44
2019-06-07T21:06:26.628Z,16.13
2019-06-07T21:08:54.445Z,16.31
2019-06-07T21:11:22.005Z,16.28
2019-06-07T21:13:49.770Z,16.43
2019-06-07T21:16:17.196Z,16.57
2019-06-07T21:18:45.850Z,16.44
2019-06-07T21:21:12.922Z,16.50
2019-06-07T21:23:40.430Z,16.50
2019-06-07T21:26:09.399Z,16.46
2019-06-07T21:28:39.783Z,16.38
2019-06-07T21:31:08.192Z,16.31
2019-06-07T21:33:38.649Z,16.47
2019-06-07T21:36:06.239Z,16.46
2019-06-07T21:38:34.853Z,16.40
2019-06-07T21:41:02.213Z,16.35
2019-06-07T21:43:29.513Z,16.43
2019-06-07T21:46:05.527Z,16.47
2019-06-07T21:48:27.129Z,16.29
2019-06-07T21:50:54.137Z,16.26
2019-06-07T21:53:22.229Z,16.07
2019-06-07T21:55:49.317Z,16.16
2019-06-07T21:58:16.699Z,16.16
2019-06-07T22:01:17.749Z,16.21
2019-06-07T22:03:45.630Z,16.10
2019-06-07T22:06:13.762Z,16.17
2019-06-07T22:08:41.731Z,16.01
2019-06-07T22:11:10.085Z,15.92
2019-06-07T22:13:37.839Z,15.79
2019-06-07T22:16:19.902Z,15.78
2019-06-07T22:18:34.460Z,15.87
2019-06-07T22:21:02.046Z,15.56
2019-06-07T22:23:30.242Z,15.48
2019-06-07T22:25:57.329Z,15.71
2019-06-07T22:28:24.412Z,15.72
2019-06-07T22:30:51.868Z,15.74
2019-06-07T22:33:19.244Z,15.72
2019-06-07T22:35:47.063Z,15.88
2019-06-07T22:38:14.485Z,15.73
2019-06-07T22:40:41.842Z,15.66
2019-06-07T22:43:09.641Z,15.64
2019-06-07T22:45:37.439Z,15.73
2019-06-07T22:48:05.497Z,15.65
2019-06-07T22:50:33.923Z,15.77
2019-06-07T22:53:00.945Z,15.79
2019-06-07T22:55:29.023Z,15.76
2019-06-07T22:57:57.978Z,15.57
2019-06-07T23:00:27.091Z,15.66
2019-06-07T23:02:54.848Z,15.49
2019-06-07T23:05:22.317Z,15.52
2019-06-07T23:07:49.887Z,15.51
2019-06-07T23:10:17.517Z,15.49
2019-06-07T23:12:44.941Z,15.54
2019-06-07T23:15:13.429Z,15.52
2019-06-07T23:17:41.445Z,15.67
2019-06-07T23:20:09.719Z,15.48
2019-06-07T23:22:37.094Z,15.64
2019-06-07T23:25:04.675Z,15.68
2019-06-07T23:27:32.061Z,15.61
2019-06-07T23:29:59.771Z,15.41
2019-06-07T23:32:27.248Z,15.48
2019-06-07T23:34:55.126Z,15.60
2019-06-07T23:37:22.866Z,15.46
2019-06-07T23:39:51.040Z,15.46
2019-06-07T23:42:19.746Z,15.41
2019-06-07T23:44:47.646Z,15.54
2019-06-07T23:47:17.004Z,15.61
2019-06-07T23:49:43.964Z,15.55
2019-06-07T23:52:11.680Z,15.56
2019-06-07T23:54:39.562Z,15.52
2019-06-07T23:57:07.216Z,15.56
2019-06-07T23:59:34.539Z,15.50
